createdAt,value
2023-05-14T00:01:32.321Z,99.90
2023-05-14T00:04:01.317Z,99.90
2023-05-14T00:06:30.363Z,99.90
2023-05-14T00:08:59.276Z,99.90
2023-05-14T00:11:28.387Z,99.90
2023-05-14T00:13:58.958Z,99.90
2023-05-14T00:16:27.973Z,99.90
2023-05-14T00:18:56.948Z,99.90
2023-05-14T00:21:25.850Z,99.90
2023-05-14T00:23:54.790Z,99.90
2023-05-14T00:26:23.601Z,99.90
2023-05-14T00:28:52.755Z,99.90
2023-05-14T00:31:23.124Z,99.90
2023-05-14T00:33:52.206Z,99.90
2023-05-14T00:36:21.132Z,99.90
2023-05-14T00:38:50.422Z,99.90
2023-05-14T00:41:19.273Z,99.90
2023-05-14T00:43:48.047Z,99.90
2023-05-14T00:46:17.911Z,99.90
2023-05-14T00:48:48.629Z,99.90
2023-05-14T00:51:18.025Z,99.90
2023-05-14T00:53:47.346Z,99.90
2023-05-14T00:56:17.365Z,99.90
2023-05-14T00:58:46.468Z,99.90
2023-05-14T01:01:16.855Z,99.90
2023-05-14T01:03:47.729Z,99.90
2023-05-14T01:06:22.374Z,99.90
2023-05-14T01:08:57.415Z,99.90
2023-05-14T01:11:54.004Z,99.90
2023-05-14T01:14:26.331Z,99.90
2023-05-14T01:17:00.269Z,99.90
2023-05-14T01:19:38.762Z,99.90
2023-05-14T01:22:09.254Z,99.90
2023-05-14T01:24:38.329Z,99.90
2023-05-14T01:27:14.884Z,99.90
2023-05-14T01:29:49.617Z,99.90
2023-05-14T01:32:20.841Z,99.90
2023-05-14T01:34:51.986Z,99.90
2023-05-14T01:37:23.271Z,99.90
2023-05-14T01:39:53.422Z,99.90
2023-05-14T01:42:40.982Z,99.90
2023-05-14T01:45:11.110Z,99.90
2023-05-14T01:47:40.162Z,99.90
2023-05-14T01:50:09.510Z,99.90
2023-05-14T01:52:39.885Z,99.90
2023-05-14T01:55:09.711Z,99.90
2023-05-14T01:57:38.608Z,99.90
2023-05-14T02:00:09.584Z,99.90
2023-05-14T02:02:44.134Z,99.90
2023-05-14T02:05:15.424Z,99.90
2023-05-14T02:07:45.964Z,99.90
2023-05-14T02:10:15.617Z,99.90
2023-05-14T02:12:44.443Z,99.90
2023-05-14T02:15:13.902Z,99.90
2023-05-14T02:17:42.838Z,99.90
2023-05-14T02:20:14.017Z,99.90
2023-05-14T02:22:45.830Z,99.90
2023-05-14T02:25:16.196Z,99.90
2023-05-14T02:27:45.630Z,99.90
2023-05-14T02:30:15.083Z,99.90
2023-05-14T02:32:44.366Z,99.90
2023-05-14T02:35:13.252Z,99.90
2023-05-14T02:37:42.178Z,99.90
2023-05-14T02:40:11.950Z,99.90
2023-05-14T02:43:00.850Z,99.90
2023-05-14T02:45:29.739Z,99.90
2023-05-14T02:47:58.815Z,99.90
2023-05-14T02:50:27.701Z,99.90
2023-05-14T02:52:56.613Z,99.90
2023-05-14T02:55:26.712Z,99.90
2023-05-14T02:57:56.985Z,99.90
2023-05-14T03:00:27.577Z,99.90
2023-05-14T03:02:57.155Z,99.90
2023-05-14T03:05:26.337Z,99.90
2023-05-14T03:07:55.217Z,99.90
2023-05-14T03:10:24.471Z,99.90
2023-05-14T03:12:53.640Z,99.90
2023-05-14T03:15:22.650Z,99.90
2023-05-14T03:17:53.539Z,99.90
2023-05-14T03:20:22.706Z,99.90
2023-05-14T03:22:51.803Z,99.90
2023-05-14T03:25:20.675Z,99.90
2023-05-14T03:27:49.728Z,99.90
2023-05-14T03:30:18.745Z,99.90
2023-05-14T03:32:47.729Z,99.90
2023-05-14T03:35:18.468Z,99.90
2023-05-14T03:37:47.448Z,99.90
2023-05-14T03:40:16.383Z,99.90
2023-05-14T03:42:45.635Z,99.90
2023-05-14T03:45:14.495Z,99.90
2023-05-14T03:47:43.941Z,99.90
2023-05-14T03:50:13.731Z,99.90
2023-05-14T03:52:44.693Z,99.90
2023-05-14T03:55:13.770Z,99.90
2023-05-14T03:57:42.608Z,99.90
2023-05-14T04:00:14.260Z,99.90
2023-05-14T04:02:45.835Z,99.90
2023-05-14T04:05:14.974Z,99.90
2023-05-14T04:07:46.413Z,99.90
2023-05-14T04:10:15.457Z,99.90
2023-05-14T04:12:44.253Z,99.90
2023-05-14T04:15:13.880Z,99.90
2023-05-14T04:17:42.851Z,99.90
2023-05-14T04:20:12.387Z,99.90
2023-05-14T04:22:42.044Z,99.90
2023-05-14T04:25:12.477Z,99.90
2023-05-14T04:27:41.899Z,99.90
2023-05-14T04:30:12.063Z,99.90
2023-05-14T04:32:40.999Z,99.90
2023-05-14T04:35:10.794Z,99.90
2023-05-14T04:37:40.614Z,99.90
2023-05-14T04:40:14.578Z,99.90
2023-05-14T04:42:43.949Z,99.90
2023-05-14T04:45:14.874Z,99.90
2023-05-14T04:47:45.239Z,99.90
2023-05-14T04:50:14.448Z,99.90
2023-05-14T04:52:43.465Z,99.90
2023-05-14T04:55:13.731Z,99.90
2023-05-14T04:57:42.648Z,99.90
2023-05-14T05:00:13.363Z,99.90
2023-05-14T05:02:42.151Z,99.90
2023-05-14T05:05:11.760Z,99.90
2023-05-14T05:07:40.630Z,99.90
2023-05-14T05:10:10.728Z,99.90
2023-05-14T05:12:41.037Z,99.90
2023-05-14T05:15:10.954Z,99.90
2023-05-14T05:17:40.044Z,99.90
2023-05-14T05:20:10.358Z,99.90
2023-05-14T05:22:39.318Z,99.90
2023-05-14T05:25:09.258Z,99.90
2023-05-14T05:27:38.121Z,99.90
2023-05-14T05:30:10.048Z,99.90
2023-05-14T05:32:39.192Z,99.90
2023-05-14T05:35:08.732Z,99.90
2023-05-14T05:37:37.664Z,99.90
2023-05-14T05:40:07.542Z,99.90
2023-05-14T05:42:36.658Z,99.90
2023-05-14T05:45:06.217Z,99.90
2023-05-14T05:47:36.454Z,99.90
2023-05-14T05:50:05.896Z,99.90
2023-05-14T05:52:34.746Z,99.90
2023-05-14T05:55:03.881Z,99.90
2023-05-14T05:57:32.852Z,99.90
2023-05-14T06:00:05.049Z,99.90
2023-05-14T06:02:43.487Z,99.90
2023-05-14T06:05:31.327Z,99.90
2023-05-14T06:08:06.868Z,99.90
2023-05-14T06:10:36.513Z,99.90
2023-05-14T06:13:05.369Z,99.90
2023-05-14T06:15:34.313Z,99.90
2023-05-14T06:18:04.851Z,99.90
2023-05-14T06:20:33.693Z,99.90
2023-05-14T06:23:02.556Z,99.90
2023-05-14T06:25:31.349Z,99.80
2023-05-14T06:28:00.315Z,99.10
2023-05-14T06:30:29.222Z,98.70
2023-05-14T06:32:58.393Z,98.30
2023-05-14T06:35:28.667Z,97.90
2023-05-14T06:38:16.402Z,97.50
2023-05-14T06:40:45.748Z,97.30
2023-05-14T06:43:14.621Z,96.90
2023-05-14T06:45:43.540Z,96.60
2023-05-14T06:48:13.460Z,96.30
2023-05-14T06:50:43.924Z,95.40
2023-05-14T06:53:12.958Z,95.10
2023-05-14T06:55:42.054Z,94.80
2023-05-14T06:58:11.204Z,93.90
2023-05-14T07:00:40.177Z,93.80
2023-05-14T07:03:09.101Z,93.80
2023-05-14T07:05:38.070Z,93.70
2023-05-14T07:08:27.046Z,93.50
2023-05-14T07:10:56.482Z,92.40
2023-05-14T07:13:28.303Z,91.80
2023-05-14T07:15:57.767Z,91.00
2023-05-14T07:18:26.620Z,90.20
2023-05-14T07:20:55.562Z,89.90
2023-05-14T07:23:24.535Z,88.60
2023-05-14T07:25:55.043Z,87.00
2023-05-14T07:28:23.959Z,86.10
2023-05-14T07:30:52.952Z,84.30
2023-05-14T07:33:22.077Z,83.70
2023-05-14T07:35:51.077Z,82.30
2023-05-14T07:38:21.281Z,81.30
2023-05-14T07:40:50.298Z,77.90
2023-05-14T07:43:20.589Z,75.30
2023-05-14T07:45:49.708Z,74.60
2023-05-14T07:48:18.783Z,72.90
2023-05-14T07:50:47.633Z,72.10
2023-05-14T07:53:16.540Z,71.00
2023-05-14T07:55:48.455Z,70.10
2023-05-14T07:58:17.462Z,69.80
2023-05-14T08:00:47.873Z,69.50
2023-05-14T08:03:16.882Z,68.00
2023-05-14T08:05:46.104Z,68.10
2023-05-14T08:08:15.053Z,68.80
2023-05-14T08:10:43.910Z,67.10
2023-05-14T08:13:12.880Z,66.00
2023-05-14T08:15:41.707Z,65.80
2023-05-14T08:18:12.228Z,65.00
2023-05-14T08:20:41.176Z,63.90
2023-05-14T08:23:10.030Z,63.10
2023-05-14T08:25:38.856Z,62.90
2023-05-14T08:28:08.743Z,63.20
2023-05-14T08:30:37.706Z,63.20
2023-05-14T08:33:07.230Z,63.80
2023-05-14T08:35:37.663Z,64.00
2023-05-14T08:38:06.656Z,63.20
2023-05-14T08:40:35.579Z,60.90
2023-05-14T08:43:05.034Z,60.60
2023-05-14T08:45:35.298Z,60.00
2023-05-14T08:48:09.254Z,59.40
2023-05-14T08:50:39.778Z,58.70
2023-05-14T08:53:08.829Z,58.50
2023-05-14T08:55:39.118Z,58.30
2023-05-14T08:58:08.272Z,57.80
2023-05-14T09:00:37.601Z,56.90
2023-05-14T09:03:08.203Z,56.60
2023-05-14T09:05:39.223Z,56.00
2023-05-14T09:08:08.461Z,56.10
2023-05-14T09:10:37.517Z,56.00
2023-05-14T09:13:07.867Z,54.60
2023-05-14T09:15:38.141Z,54.50
2023-05-14T09:18:08.663Z,53.70
2023-05-14T09:20:40.311Z,52.30
2023-05-14T09:23:09.196Z,51.80
2023-05-14T09:25:38.122Z,51.90
2023-05-14T09:28:17.860Z,51.40
2023-05-14T09:30:52.343Z,51.70
2023-05-14T09:33:28.767Z,52.20
2023-05-14T09:36:01.515Z,52.50
2023-05-14T09:38:31.467Z,53.10
2023-05-14T09:41:00.909Z,52.60
2023-05-14T09:43:29.774Z,52.10
2023-05-14T09:45:58.724Z,52.30
2023-05-14T09:48:27.765Z,52.30
2023-05-14T09:50:57.041Z,52.30
2023-05-14T09:53:27.519Z,52.10
2023-05-14T09:56:16.676Z,52.20
2023-05-14T09:58:45.492Z,52.70
2023-05-14T10:01:16.294Z,52.30
2023-05-14T10:03:45.746Z,52.70
2023-05-14T10:06:17.217Z,51.90
2023-05-14T10:08:50.051Z,52.30
2023-05-14T10:11:22.564Z,52.30
2023-05-14T10:14:04.152Z,52.80
2023-05-14T10:16:35.785Z,52.80
2023-05-14T10:19:09.517Z,53.00
2023-05-14T10:21:39.935Z,52.30
2023-05-14T10:24:29.441Z,51.40
2023-05-14T10:26:58.945Z,50.70
2023-05-14T10:29:34.882Z,50.40
2023-05-14T10:32:07.427Z,51.20
2023-05-14T10:34:41.690Z,52.20
2023-05-14T10:37:12.706Z,53.00
2023-05-14T10:39:51.391Z,52.70
2023-05-14T10:42:21.883Z,53.50
2023-05-14T10:44:54.327Z,53.70
2023-05-14T10:47:24.082Z,53.60
2023-05-14T10:49:56.025Z,54.20
2023-05-14T10:52:25.715Z,53.60
2023-05-14T10:54:59.142Z,54.10
2023-05-14T10:57:31.741Z,54.70
2023-05-14T11:00:02.230Z,54.30
2023-05-14T11:02:32.998Z,53.90
2023-05-14T11:05:20.477Z,53.70
2023-05-14T11:07:50.810Z,53.70
2023-05-14T11:10:22.925Z,53.20
2023-05-14T11:12:53.142Z,52.70
2023-05-14T11:15:23.210Z,52.90
2023-05-14T11:17:53.295Z,53.70
2023-05-14T11:20:23.224Z,53.60
2023-05-14T11:22:52.934Z,53.50
2023-05-14T11:25:25.931Z,52.50
2023-05-14T11:27:58.764Z,51.90
2023-05-14T11:30:27.826Z,52.20
2023-05-14T11:32:59.249Z,52.10
2023-05-14T11:35:29.656Z,51.80
2023-05-14T11:37:58.562Z,51.60
2023-05-14T11:40:28.953Z,51.30
2023-05-14T11:42:57.916Z,50.80
2023-05-14T11:45:27.634Z,50.30
2023-05-14T11:47:56.599Z,50.10
2023-05-14T11:50:25.812Z,50.30
2023-05-14T11:52:58.450Z,50.00
2023-05-14T11:55:29.198Z,49.80
2023-05-14T11:57:58.448Z,49.20
2023-05-14T12:00:28.715Z,48.80
2023-05-14T12:02:57.835Z,48.90
2023-05-14T12:05:27.024Z,48.30
2023-05-14T12:07:56.336Z,47.00
2023-05-14T12:10:26.156Z,45.70
2023-05-14T12:12:56.791Z,45.00
2023-05-14T12:15:27.090Z,45.00
2023-05-14T12:17:56.268Z,45.20
2023-05-14T12:20:26.493Z,45.70
2023-05-14T12:22:55.510Z,46.40
2023-05-14T12:25:27.072Z,46.90
2023-05-14T12:27:57.495Z,46.50
2023-05-14T12:30:26.861Z,46.40
2023-05-14T12:32:55.752Z,46.80
2023-05-14T12:35:24.884Z,46.60
2023-05-14T12:37:55.634Z,46.40
2023-05-14T12:40:24.871Z,45.50
2023-05-14T12:42:55.473Z,45.70
2023-05-14T12:45:26.995Z,45.30
2023-05-14T12:47:55.943Z,45.40
2023-05-14T12:50:25.159Z,45.60
2023-05-14T12:52:54.311Z,45.70
2023-05-14T12:55:23.314Z,45.60
2023-05-14T12:57:52.298Z,45.40
2023-05-14T13:00:21.910Z,44.80
2023-05-14T13:03:11.052Z,45.00
2023-05-14T13:05:40.092Z,45.50
2023-05-14T13:08:09.067Z,46.00
2023-05-14T13:10:38.159Z,46.80
2023-05-14T13:13:07.074Z,47.00
2023-05-14T13:15:37.632Z,47.10
2023-05-14T13:18:08.015Z,47.20
2023-05-14T13:20:38.417Z,47.40
2023-05-14T13:23:07.462Z,47.50
2023-05-14T13:25:37.438Z,48.00
2023-05-14T13:28:06.801Z,48.40
2023-05-14T13:30:36.353Z,48.50
2023-05-14T13:33:05.692Z,48.40
2023-05-14T13:35:35.624Z,48.30
2023-05-14T13:38:08.174Z,48.40
2023-05-14T13:40:37.200Z,48.60
2023-05-14T13:43:06.058Z,48.90
2023-05-14T13:45:34.848Z,49.50
2023-05-14T13:48:04.041Z,49.60
2023-05-14T13:50:32.885Z,49.90
2023-05-14T13:53:01.816Z,50.00
2023-05-14T13:55:32.470Z,50.50
2023-05-14T13:58:04.044Z,50.80
2023-05-14T14:00:33.024Z,51.20
2023-05-14T14:03:01.939Z,51.80
2023-05-14T14:05:31.834Z,52.20
2023-05-14T14:08:12.792Z,52.20
2023-05-14T14:10:51.266Z,52.20
2023-05-14T14:13:21.485Z,52.10
2023-05-14T14:15:50.662Z,52.20
2023-05-14T14:18:19.552Z,52.30
2023-05-14T14:20:48.407Z,52.50
2023-05-14T14:23:17.365Z,52.60
2023-05-14T14:25:46.643Z,52.90
2023-05-14T14:28:16.909Z,53.20
2023-05-14T14:30:45.944Z,53.30
2023-05-14T14:33:14.966Z,53.60
2023-05-14T14:35:43.980Z,53.60
2023-05-14T14:38:12.902Z,54.00
2023-05-14T14:40:41.766Z,54.30
2023-05-14T14:43:11.060Z,54.60
2023-05-14T14:45:42.934Z,55.10
2023-05-14T14:48:26.119Z,55.10
2023-05-14T14:50:55.642Z,55.60
2023-05-14T14:53:25.152Z,55.70
2023-05-14T14:55:54.358Z,55.70
2023-05-14T14:58:23.595Z,55.80
2023-05-14T15:00:56.119Z,56.20
2023-05-14T15:03:26.430Z,56.40
2023-05-14T15:05:55.653Z,56.80
2023-05-14T15:08:28.220Z,57.00
2023-05-14T15:10:58.065Z,57.10
2023-05-14T15:13:27.272Z,57.20
2023-05-14T15:15:57.646Z,58.00
2023-05-14T15:18:27.246Z,57.30
2023-05-14T15:20:56.163Z,57.40
2023-05-14T15:23:25.114Z,57.40
2023-05-14T15:26:12.375Z,57.80
2023-05-14T15:28:41.340Z,57.40
2023-05-14T15:31:12.105Z,57.40
2023-05-14T15:33:41.986Z,57.70
2023-05-14T15:36:11.380Z,58.00
2023-05-14T15:38:40.901Z,58.20
2023-05-14T15:41:10.008Z,58.40
2023-05-14T15:43:38.863Z,58.70
2023-05-14T15:46:07.889Z,58.90
2023-05-14T15:48:38.192Z,59.00
2023-05-14T15:51:07.212Z,59.20
2023-05-14T15:53:36.014Z,59.50
2023-05-14T15:56:04.951Z,59.70
2023-05-14T15:58:33.868Z,60.10
2023-05-14T16:01:02.995Z,60.40
2023-05-14T16:03:32.041Z,60.80
2023-05-14T16:06:02.440Z,60.90
2023-05-14T16:08:31.487Z,61.10
2023-05-14T16:11:00.324Z,61.30
2023-05-14T16:13:29.334Z,61.40
2023-05-14T16:15:59.687Z,61.60
2023-05-14T16:18:28.802Z,61.70
2023-05-14T16:20:58.176Z,61.90
2023-05-14T16:23:28.715Z,62.00
2023-05-14T16:25:58.017Z,62.30
2023-05-14T16:28:28.964Z,62.60
2023-05-14T16:30:58.022Z,62.90
2023-05-14T16:33:26.911Z,63.00
2023-05-14T16:35:55.911Z,63.30
2023-05-14T16:38:24.822Z,63.50
2023-05-14T16:40:55.021Z,63.70
2023-05-14T16:43:24.018Z,64.00
2023-05-14T16:45:52.867Z,64.10
2023-05-14T16:48:24.120Z,64.20
2023-05-14T16:50:53.145Z,63.70
2023-05-14T16:53:21.930Z,63.50
2023-05-14T16:55:51.227Z,63.70
2023-05-14T16:58:21.657Z,64.00
2023-05-14T17:00:50.882Z,64.30
2023-05-14T17:03:21.433Z,64.40
2023-05-14T17:05:51.842Z,64.40
2023-05-14T17:08:20.838Z,64.80
2023-05-14T17:10:50.093Z,65.00
2023-05-14T17:13:20.678Z,65.40
2023-05-14T17:15:49.669Z,65.50
2023-05-14T17:18:18.594Z,66.30
2023-05-14T17:20:47.629Z,66.00
2023-05-14T17:23:17.362Z,66.30
2023-05-14T17:25:46.232Z,66.70
2023-05-14T17:28:15.107Z,66.90
2023-05-14T17:30:45.926Z,67.10
2023-05-14T17:33:18.437Z,67.40
2023-05-14T17:35:47.949Z,67.90
2023-05-14T17:38:22.253Z,68.30
2023-05-14T17:40:51.135Z,68.70
2023-05-14T17:43:21.489Z,69.00
2023-05-14T17:45:54.217Z,69.50
2023-05-14T17:48:24.233Z,69.90
2023-05-14T17:50:53.533Z,70.90
2023-05-14T17:53:22.286Z,70.60
2023-05-14T17:55:51.693Z,70.90
2023-05-14T17:58:20.637Z,71.30
2023-05-14T18:00:50.989Z,71.70
2023-05-14T18:03:20.628Z,71.90
2023-05-14T18:05:49.789Z,72.20
2023-05-14T18:08:18.820Z,72.50
2023-05-14T18:10:49.888Z,72.70
2023-05-14T18:13:18.857Z,72.90
2023-05-14T18:15:47.820Z,73.30
2023-05-14T18:18:18.982Z,73.50
2023-05-14T18:20:47.796Z,73.90
2023-05-14T18:23:16.718Z,74.30
2023-05-14T18:25:45.686Z,74.60
2023-05-14T18:28:14.597Z,75.00
2023-05-14T18:30:43.719Z,75.40
2023-05-14T18:33:12.672Z,75.60
2023-05-14T18:35:43.739Z,75.90
2023-05-14T18:38:13.968Z,76.20
2023-05-14T18:40:43.239Z,76.40
2023-05-14T18:43:13.565Z,76.60
2023-05-14T18:45:44.348Z,76.80
2023-05-14T18:48:33.041Z,77.10
2023-05-14T18:51:03.402Z,77.30
2023-05-14T18:53:32.460Z,77.50
2023-05-14T18:56:02.025Z,77.70
2023-05-14T18:58:32.797Z,77.90
2023-05-14T19:01:01.964Z,78.00
2023-05-14T19:03:42.599Z,78.20
2023-05-14T19:06:12.986Z,78.50
2023-05-14T19:08:42.816Z,78.70
2023-05-14T19:11:11.756Z,78.90
2023-05-14T19:13:40.623Z,79.20
2023-05-14T19:16:11.385Z,79.30
2023-05-14T19:18:40.534Z,79.50
2023-05-14T19:21:09.591Z,79.80
2023-05-14T19:23:39.882Z,80.00
2023-05-14T19:26:12.506Z,80.10
2023-05-14T19:28:42.136Z,80.10
2023-05-14T19:31:17.850Z,80.20
2023-05-14T19:33:48.086Z,80.40
2023-05-14T19:36:17.106Z,80.60
2023-05-14T19:38:47.347Z,80.80
2023-05-14T19:41:19.954Z,81.10
2023-05-14T19:43:49.020Z,81.30
2023-05-14T19:46:20.922Z,81.80
2023-05-14T19:48:51.458Z,81.90
2023-05-14T19:51:20.642Z,82.20
2023-05-14T19:53:51.051Z,82.50
2023-05-14T19:56:30.495Z,83.20
2023-05-14T19:59:02.172Z,83.70
2023-05-14T20:01:31.316Z,84.10
2023-05-14T20:04:00.380Z,84.50
2023-05-14T20:06:29.517Z,84.80
2023-05-14T20:09:06.103Z,85.30
2023-05-14T20:11:35.205Z,85.70
2023-05-14T20:14:04.065Z,86.00
2023-05-14T20:16:33.340Z,86.30
2023-05-14T20:19:02.463Z,86.70
2023-05-14T20:21:32.140Z,87.00
2023-05-14T20:24:03.304Z,87.40
2023-05-14T20:26:32.565Z,87.80
2023-05-14T20:29:01.405Z,88.20
2023-05-14T20:31:30.310Z,88.50
2023-05-14T20:34:01.452Z,88.60
2023-05-14T20:36:31.074Z,88.70
2023-05-14T20:39:01.855Z,88.90
2023-05-14T20:41:30.933Z,89.20
2023-05-14T20:43:59.834Z,89.50
2023-05-14T20:46:28.752Z,89.70
2023-05-14T20:48:58.780Z,89.90
2023-05-14T20:51:27.816Z,90.00
2023-05-14T20:53:56.708Z,90.20
2023-05-14T20:56:27.633Z,90.30
2023-05-14T20:58:58.887Z,90.40
2023-05-14T21:01:28.096Z,90.50
2023-05-14T21:03:57.177Z,90.50
2023-05-14T21:06:26.096Z,90.50
2023-05-14T21:08:55.337Z,90.50
2023-05-14T21:11:24.830Z,90.60
2023-05-14T21:13:55.407Z,90.70
2023-05-14T21:16:24.617Z,90.70
2023-05-14T21:18:53.832Z,90.70
2023-05-14T21:21:23.024Z,90.80
2023-05-14T21:23:52.170Z,90.80
2023-05-14T21:26:23.105Z,90.90
2023-05-14T21:28:52.356Z,90.90
2023-05-14T21:31:25.922Z,90.90
2023-05-14T21:33:54.933Z,90.90
2023-05-14T21:36:24.631Z,90.90
2023-05-14T21:38:54.890Z,90.90
2023-05-14T21:41:24.711Z,91.00
2023-05-14T21:43:54.235Z,91.10
2023-05-14T21:46:25.893Z,91.10
2023-05-14T21:48:54.838Z,91.30
2023-05-14T21:51:23.919Z,91.40
2023-05-14T21:53:52.942Z,91.40
2023-05-14T21:56:22.789Z,91.40
2023-05-14T21:58:51.850Z,91.40
2023-05-14T22:01:20.796Z,91.50
2023-05-14T22:03:51.297Z,91.60
2023-05-14T22:06:21.176Z,91.80
2023-05-14T22:08:50.364Z,92.00
2023-05-14T22:11:19.612Z,92.10
2023-05-14T22:13:48.883Z,92.10
2023-05-14T22:16:18.089Z,92.20
2023-05-14T22:18:47.974Z,92.40
2023-05-14T22:21:20.076Z,92.50
2023-05-14T22:23:50.486Z,92.70
2023-05-14T22:26:19.518Z,92.90
2023-05-14T22:28:49.842Z,93.10
2023-05-14T22:31:19.690Z,93.20
2023-05-14T22:33:48.960Z,93.40
2023-05-14T22:36:19.471Z,93.60
2023-05-14T22:38:48.299Z,93.70
2023-05-14T22:41:17.724Z,93.80
2023-05-14T22:43:48.793Z,94.00
2023-05-14T22:46:17.713Z,94.10
2023-05-14T22:48:49.299Z,94.20
2023-05-14T22:51:19.769Z,94.30
2023-05-14T22:53:48.935Z,94.50
2023-05-14T22:56:20.582Z,94.60
2023-05-14T22:58:49.675Z,94.60
2023-05-14T23:01:18.959Z,94.80
2023-05-14T23:03:47.890Z,94.80
2023-05-14T23:06:16.960Z,95.00
2023-05-14T23:08:47.466Z,95.10
2023-05-14T23:11:16.889Z,95.60
2023-05-14T23:13:45.721Z,95.60
2023-05-14T23:16:14.687Z,95.80
2023-05-14T23:18:44.186Z,95.70
2023-05-14T23:21:13.691Z,96.00
2023-05-14T23:23:42.624Z,96.10
2023-05-14T23:26:13.281Z,96.20
2023-05-14T23:28:42.285Z,96.30
2023-05-14T23:31:11.212Z,96.30
2023-05-14T23:33:40.492Z,96.40
2023-05-14T23:36:11.391Z,96.50
2023-05-14T23:38:40.932Z,96.90
2023-05-14T23:41:09.908Z,96.80
2023-05-14T23:43:40.544Z,96.90
2023-05-14T23:46:09.696Z,97.00
2023-05-14T23:48:38.702Z,97.10
2023-05-14T23:51:07.869Z,97.30
2023-05-14T23:53:37.130Z,97.40
2023-05-14T23:56:06.208Z,97.50
2023-05-14T23:58:35.329Z,97.60
